Siros — SX2878 — position and weather

sailwx.info

Track history (hours):
 
Tides and Currents Weather Stations Pressure Air Temp Water Temp Dewpoint Dewpoint Depression Visibility Wind Speed Wind Dir Waves Ship Positions

Siros

Last reported at 2017-Nov-19 08:30 UTC. Time now 2017-Nov-19 08:46 UTC.
Position N 37°57' E 023°34'.

Type: Tanker. MMSI: 237017200.

Date/timePositionNaut miles runAvg speedWind from/ knotsBaromVisibWave heightAir tempDewpointWater temp
2017-Nov-19 08:30N 37°57' E 023°34'0 0.0
2017-Nov-19 08:01N 37°57' E 023°34'0 0.1
2017-Nov-19 07:31N 37°57' E 023°34'0 0.0
2017-Nov-19 07:01N 37°57' E 023°34'0 0.0
2017-Nov-19 06:31N 37°57' E 023°34'0 0.0
2017-Nov-19 06:00N 37°57' E 023°34'0 0.0
2017-Nov-19 05:31N 37°57' E 023°34'0 0.1
2017-Nov-19 05:01N 37°57' E 023°34'0 0.0
2017-Nov-19 04:31N 37°57' E 023°34'0 0.0
2017-Nov-19 04:00N 37°57' E 023°34'0 0.1
2017-Nov-19 03:30N 37°57' E 023°34'0 0.1
2017-Nov-19 03:01N 37°57' E 023°34'0 0.0
2017-Nov-19 02:31N 37°57' E 023°34'0 0.0
2017-Nov-19 02:01N 37°57' E 023°34'0 0.0
2017-Nov-19 01:30N 37°57' E 023°34'0 0.0
2017-Nov-19 01:00N 37°57' E 023°34'0 0.0
2017-Nov-19 00:30N 37°57' E 023°34'0 0.1
2017-Nov-19 00:00N 37°57' E 023°34'0 0.0
2017-Nov-18 23:31N 37°57' E 023°34'0 0.0
2017-Nov-18 23:01N 37°57' E 023°34'0 0.1
2017-Nov-18 22:31N 37°57' E 023°34'0 0.0
2017-Nov-18 22:01N 37°57' E 023°34'0 0.0
2017-Nov-18 21:31N 37°57' E 023°34'0 0.1
2017-Nov-18 21:01N 37°57' E 023°34'0 0.0
2017-Nov-18 20:30N 37°57' E 023°34'0 0.0
2017-Nov-18 20:01N 37°57' E 023°34'0 0.1
2017-Nov-18 19:30N 37°57' E 023°34'0 0.0
2017-Nov-18 19:01N 37°57' E 023°34'1 2.3
2017-Nov-18 18:30N 37°57' E 023°36'0 0.2
2017-Nov-18 18:01N 37°57' E 023°36'0 0.0
2017-Nov-18 17:31N 37°57' E 023°36'0 0.0
2017-Nov-18 17:01N 37°57' E 023°36'0 0.0
2017-Nov-18 16:31N 37°57' E 023°36'0 0.0
2017-Nov-18 16:01N 37°57' E 023°36'0 0.0
2017-Nov-18 15:30N 37°57' E 023°36'0 0.0
2017-Nov-18 15:01N 37°57' E 023°36'0 0.0
2017-Nov-18 14:31N 37°57' E 023°36'0 0.2
2017-Nov-18 14:00N 37°57' E 023°36'3 5.3
2017-Nov-18 13:30N 37°58' E 023°33'3 5.5
2017-Nov-18 13:01N 38°01' E 023°32'0 0.0
2017-Nov-18 12:30N 38°01' E 023°32'0 0.0
2017-Nov-18 12:00N 38°01' E 023°32'0 0.0
2017-Nov-18 11:30N 38°01' E 023°32'0 0.0
2017-Nov-18 11:00N 38°01' E 023°32'0 0.0
2017-Nov-18 10:30N 38°01' E 023°32'0 0.0
2017-Nov-18 10:00N 38°01' E 023°32'0 0.0
2017-Nov-18 09:30N 38°01' E 023°32'0 0.0
2017-Nov-18 09:01N 38°01' E 023°32'0 0.0
2017-Nov-18 08:30N 38°01' E 023°32'0 0.1
2017-Nov-18 07:59N 38°01' E 023°32'0 0.0
2017-Nov-18 07:30N 38°01' E 023°32'1 2.2
2017-Nov-18 07:00N 37°60' E 023°33'3 7.0
2017-Nov-18 06:30N 37°57' E 023°35'4 7.0
2017-Nov-18 06:00N 37°54' E 023°33'3 5.0
2017-Nov-18 05:29N 37°52' E 023°31'0 0.2
2017-Nov-18 05:00N 37°52' E 023°31'0 0.1
2017-Nov-18 04:30N 37°52' E 023°31'0 0.0
2017-Nov-18 04:01N 37°52' E 023°31'0 0.0
2017-Nov-18 03:30N 37°52' E 023°31'0 0.0
2017-Nov-18 02:56N 37°52' E 023°31'0 0.0
2017-Nov-18 02:29N 37°52' E 023°31'0 0.1
2017-Nov-18 02:01N 37°52' E 023°31'2 4.2
2017-Nov-18 01:30N 37°51' E 023°28'4 8.3
2017-Nov-18 00:59N 37°52' E 023°23'4 8.0
2017-Nov-18 00:30N 37°53' E 023°18'4 8.1
2017-Nov-18 00:01N 37°53' E 023°13'4 8.0
2017-Nov-17 23:31N 37°54' E 023°08'2 4.5
2017-Nov-17 23:01N 37°55' E 023°05'0 0.1
2017-Nov-17 22:30N 37°55' E 023°05'0 0.0
2017-Nov-17 22:00N 37°55' E 023°05'0 0.0
2017-Nov-17 21:31N 37°55' E 023°05'0 0.0
2017-Nov-17 21:01N 37°55' E 023°05'0 0.0
2017-Nov-17 20:31N 37°55' E 023°05'0 0.0
2017-Nov-17 20:01N 37°55' E 023°05'0 0.0
2017-Nov-17 19:30N 37°55' E 023°05'0 0.0
2017-Nov-17 19:00N 37°55' E 023°05'0 0.0
2017-Nov-17 18:30N 37°55' E 023°05'0 0.0
2017-Nov-17 18:01N 37°55' E 023°05'0 0.0
2017-Nov-17 17:31N 37°55' E 023°05'0 0.0
2017-Nov-17 17:00N 37°55' E 023°05'0 0.0
2017-Nov-17 16:30N 37°55' E 023°05'0 0.0
2017-Nov-17 15:32N 37°55' E 023°05'0 0.0
2017-Nov-17 15:30N 37°55' E 023°05'0 0.0
2017-Nov-17 15:01N 37°55' E 023°05'0 0.0
2017-Nov-17 14:30N 37°55' E 023°05'0 0.0
2017-Nov-17 14:01N 37°55' E 023°05'0 0.0
2017-Nov-17 13:31N 37°55' E 023°05'0 0.0
2017-Nov-17 13:01N 37°55' E 023°05'0 0.0
2017-Nov-17 12:31N 37°55' E 023°05'0 0.0
2017-Nov-17 12:00N 37°55' E 023°05'0 0.0
2017-Nov-17 11:27N 37°55' E 023°05'0 0.0
2017-Nov-17 11:01N 37°55' E 023°05'0 0.0
2017-Nov-17 10:31N 37°55' E 023°05'0 0.0
2017-Nov-17 10:01N 37°55' E 023°05'0 0.0
2017-Nov-17 09:31N 37°55' E 023°05'0 0.0
2017-Nov-17 09:01N 37°55' E 023°05'0 0.0
2017-Nov-17 08:31N 37°55' E 023°05'0 0.1
2017-Nov-17 08:01N 37°55' E 023°05'1 1.7
2017-Nov-17 07:31N 37°55' E 023°06'0 0.3
2017-Nov-17 07:01N 37°55' E 023°06'0 0.0
2017-Nov-17 06:31N 37°55' E 023°06'0 0.0
2017-Nov-17 06:01N 37°55' E 023°06'0 0.0
2017-Nov-17 05:31N 37°55' E 023°06'0 0.0
2017-Nov-17 05:01N 37°55' E 023°06'0 0.0
2017-Nov-17 04:30N 37°55' E 023°06'0 0.0
2017-Nov-17 04:01N 37°55' E 023°06'0 0.0
2017-Nov-17 03:31N 37°55' E 023°06'0 0.0
2017-Nov-17 03:00N 37°55' E 023°06'0 0.0
2017-Nov-17 02:30N 37°55' E 023°06'0 0.0
2017-Nov-17 02:00N 37°55' E 023°06'0 0.0
2017-Nov-17 01:31N 37°55' E 023°06'0 0.0
2017-Nov-17 01:01N 37°55' E 023°06'0 0.0
2017-Nov-17 00:30N 37°55' E 023°06'0 0.0
2017-Nov-17 00:01N 37°55' E 023°06'0 0.0
2017-Nov-16 23:31N 37°55' E 023°06'0 0.0
2017-Nov-16 23:01N 37°55' E 023°06'0 0.8
2017-Nov-16 22:31N 37°55' E 023°07'4 7.1
2017-Nov-16 22:00N 37°54' E 023°11'5 9.2
2017-Nov-16 21:30N 37°53' E 023°17'5 9.4
2017-Nov-16 21:00N 37°52' E 023°23'4 8.9
2017-Nov-16 20:31N 37°52' E 023°28'4 8.4
2017-Nov-16 20:01N 37°54' E 023°32'3 6.6
2017-Nov-16 19:31N 37°57' E 023°34'0 0.3
2017-Nov-16 19:00N 37°57' E 023°34'0 0.0
2017-Nov-16 18:31N 37°57' E 023°34'0 0.0
2017-Nov-16 18:00N 37°57' E 023°34'0 0.0
2017-Nov-16 17:30N 37°57' E 023°34'0 0.0
2017-Nov-16 17:01N 37°57' E 023°34'0 0.0
2017-Nov-16 16:31N 37°57' E 023°34'0 0.0
2017-Nov-16 16:01N 37°57' E 023°34'0 0.1
2017-Nov-16 15:31N 37°57' E 023°34'0 0.1
2017-Nov-16 15:01N 37°57' E 023°34'0 0.0
2017-Nov-16 14:31N 37°57' E 023°34'0 0.0
2017-Nov-16 14:01N 37°57' E 023°34'0 0.0
2017-Nov-16 13:31N 37°57' E 023°34'0 0.0
2017-Nov-16 13:00N 37°57' E 023°34'0 0.0
2017-Nov-16 12:31N 37°57' E 023°34'0 0.0
2017-Nov-16 12:00N 37°57' E 023°34'0 0.0
2017-Nov-16 11:31N 37°57' E 023°34'0 0.0
2017-Nov-16 11:01N 37°57' E 023°34'0 0.0
2017-Nov-16 10:30N 37°57' E 023°34'0 0.0
2017-Nov-16 10:01N 37°57' E 023°34'0 0.0
2017-Nov-16 09:31N 37°57' E 023°34'0 0.1
2017-Nov-16 09:01N 37°57' E 023°34'0 0.1
2017-Nov-16 08:31N 37°57' E 023°34'0 0.0
2017-Nov-16 08:00N 37°57' E 023°34'0 0.2
2017-Nov-16 07:30N 37°57' E 023°34'0 0.0
2017-Nov-16 07:01N 37°57' E 023°34'0 0.0
2017-Nov-16 06:30N 37°57' E 023°34'0 0.0
2017-Nov-16 06:00N 37°57' E 023°34'0 0.0
2017-Nov-16 05:31N 37°57' E 023°34'0 0.1
2017-Nov-16 05:00N 37°57' E 023°34'0 0.0
2017-Nov-16 04:31N 37°57' E 023°34'0 0.0
2017-Nov-16 04:01N 37°57' E 023°34'0 0.0
2017-Nov-16 03:30N 37°57' E 023°34'0 0.0
2017-Nov-16 03:01N 37°57' E 023°34'0 0.0
2017-Nov-16 02:31N 37°57' E 023°34'0 0.0
2017-Nov-16 02:01N 37°57' E 023°34'0 0.0
2017-Nov-16 01:30N 37°57' E 023°34'0 0.0
2017-Nov-16 01:01N 37°57' E 023°34'0 0.0
2017-Nov-16 00:30N 37°57' E 023°34'0 0.0
2017-Nov-16 00:00N 37°57' E 023°34'0 0.0
2017-Nov-15 23:30N 37°57' E 023°34'0 0.0
2017-Nov-15 23:01N 37°57' E 023°34'0 0.0
2017-Nov-15 22:30N 37°57' E 023°34'0 0.0
2017-Nov-15 22:01N 37°57' E 023°34'0 0.0
2017-Nov-15 21:31N 37°57' E 023°34'0 0.0
2017-Nov-15 21:01N 37°57' E 023°34'0 0.0
2017-Nov-15 20:31N 37°57' E 023°34'0 0.0
2017-Nov-15 20:01N 37°57' E 023°34'0 0.0
2017-Nov-15 19:31N 37°57' E 023°34'0 0.0
2017-Nov-15 19:01N 37°57' E 023°34'0 0.0
2017-Nov-15 18:31N 37°57' E 023°34'0 0.0
2017-Nov-15 18:01N 37°57' E 023°34'0 0.1
2017-Nov-15 17:31N 37°57' E 023°34'0 0.1
2017-Nov-15 17:01N 37°57' E 023°34'0 0.0
2017-Nov-15 16:31N 37°57' E 023°34'0 0.1
2017-Nov-15 16:01N 37°57' E 023°34'0 0.1
2017-Nov-15 15:31N 37°57' E 023°34'0 0.0
2017-Nov-15 15:01N 37°57' E 023°34'0 0.1
2017-Nov-15 14:31N 37°57' E 023°34'0 0.0
2017-Nov-15 14:01N 37°57' E 023°34'0 0.0
2017-Nov-15 13:30N 37°57' E 023°34'0 0.0
2017-Nov-15 13:01N 37°57' E 023°34'0 0.1
2017-Nov-15 12:31N 37°57' E 023°34'0 0.0
2017-Nov-15 12:01N 37°57' E 023°34'3 6.8
2017-Nov-15 11:31N 37°54' E 023°33'2 3.3
2017-Nov-15 11:01N 37°53' E 023°32'0 0.0
2017-Nov-15 10:31N 37°53' E 023°32'0 0.0
2017-Nov-15 10:01N 37°53' E 023°32'0 0.0
2017-Nov-15 09:31N 37°53' E 023°32'0 0.0
2017-Nov-15 09:01N 37°53' E 023°32'0 0.0
2017-Nov-15 08:31N 37°53' E 023°32'0 0.0
2017-Nov-15 08:01N 37°53' E 023°32'0 0.1
2017-Nov-15 07:30N 37°53' E 023°32'0 0.0
2017-Nov-15 07:00N 37°53' E 023°32'0 0.0
2017-Nov-15 06:31N 37°53' E 023°32'0 0.0
2017-Nov-15 06:01N 37°53' E 023°32'1 2.3
2017-Nov-15 05:31N 37°53' E 023°30'4 8.1
2017-Nov-15 05:00N 37°51' E 023°25'4 8.8
2017-Nov-15 04:30N 37°52' E 023°20'4 8.8
2017-Nov-15 04:01N 37°53' E 023°15'4 8.7
2017-Nov-15 03:31N 37°54' E 023°09'3 6.3
2017-Nov-15 03:00N 37°55' E 023°05'0 0.1
2017-Nov-15 02:30N 37°55' E 023°05'0 0.0
2017-Nov-15 02:01N 37°55' E 023°05'0 0.0
2017-Nov-15 01:31N 37°55' E 023°05'0 0.0
2017-Nov-15 01:01N 37°55' E 023°05'0 0.0
2017-Nov-15 00:31N 37°55' E 023°05'0 0.0
2017-Nov-15 00:00N 37°55' E 023°05'0 0.0
2017-Nov-14 23:31N 37°55' E 023°05'0 0.0
2017-Nov-14 23:01N 37°55' E 023°05'0 0.0
2017-Nov-14 22:31N 37°55' E 023°05'0 0.0
2017-Nov-14 22:01N 37°55' E 023°05'0 0.0
2017-Nov-14 21:31N 37°55' E 023°05'0 0.0
2017-Nov-14 21:01N 37°55' E 023°05'0 0.0
2017-Nov-14 20:31N 37°55' E 023°05'0 0.0
2017-Nov-14 20:00N 37°55' E 023°05'0 0.0
2017-Nov-14 19:30N 37°55' E 023°05'0 0.0
2017-Nov-14 19:01N 37°55' E 023°05'0 0.0
2017-Nov-14 18:31N 37°55' E 023°05'0 0.0
2017-Nov-14 18:01N 37°55' E 023°05'0 0.0
2017-Nov-14 17:31N 37°55' E 023°05'0 0.0
2017-Nov-14 17:01N 37°55' E 023°05'1 1.3
2017-Nov-14 16:30N 37°55' E 023°06'4 8.6
2017-Nov-14 16:01N 37°54' E 023°11'5 9.2
2017-Nov-14 15:31N 37°53' E 023°17'5 9.4
2017-Nov-14 15:01N 37°52' E 023°23'5 9.2
2017-Nov-14 14:31N 37°52' E 023°29'5 9.0
2017-Nov-14 14:01N 37°55' E 023°33'3 5.4
2017-Nov-14 13:31N 37°57' E 023°34'0 0.0
2017-Nov-14 13:00N 37°57' E 023°34'0 0.0
2017-Nov-14 12:31N 37°57' E 023°34'0 0.0
2017-Nov-14 12:00N 37°57' E 023°34'0 0.0
2017-Nov-14 11:31N 37°57' E 023°34'0 0.0
2017-Nov-14 11:00N 37°57' E 023°34'0 0.0
2017-Nov-14 10:31N 37°57' E 023°34'0 0.0
2017-Nov-14 10:00N 37°57' E 023°34'0 0.0
2017-Nov-14 09:31N 37°57' E 023°34'0 0.0
2017-Nov-14 09:01N 37°57' E 023°34'0 0.0
2017-Nov-14 08:30N 37°57' E 023°34'0 0.0
2017-Nov-14 08:01N 37°57' E 023°34'0 0.0
2017-Nov-14 07:31N 37°57' E 023°34'0 0.0
2017-Nov-14 07:00N 37°57' E 023°34'0 0.0
2017-Nov-14 06:31N 37°57' E 023°34'0 0.0
2017-Nov-14 06:01N 37°57' E 023°34'0 0.0
2017-Nov-14 05:30N 37°57' E 023°34'0 0.0
2017-Nov-14 05:01N 37°57' E 023°34'0 0.1
2017-Nov-14 04:31N 37°57' E 023°34'0 0.0
2017-Nov-14 04:00N 37°57' E 023°34'0 0.0
2017-Nov-14 03:31N 37°57' E 023°34'0 0.1
2017-Nov-14 03:01N 37°57' E 023°34'0 0.0
2017-Nov-14 02:31N 37°57' E 023°34'0 0.0
2017-Nov-14 02:00N 37°57' E 023°34'0 0.0
2017-Nov-14 01:31N 37°57' E 023°34'0 0.0
2017-Nov-14 01:01N 37°57' E 023°34'0 0.1
2017-Nov-14 00:31N 37°57' E 023°34'0 0.0
2017-Nov-14 00:01N 37°57' E 023°34'0 0.1
2017-Nov-13 23:30N 37°57' E 023°34'0 0.0
2017-Nov-13 23:00N 37°57' E 023°34'0 0.0
2017-Nov-13 22:30N 37°57' E 023°34'0 0.0
2017-Nov-13 22:00N 37°57' E 023°34'0 0.0
2017-Nov-13 02:00N 37°57' E 023°34'0 0.0
2017-Nov-13 01:31N 37°57' E 023°34'0 0.1
2017-Nov-13 01:01N 37°57' E 023°34'0 0.0
2017-Nov-13 00:30N 37°57' E 023°34'0 0.0
2017-Nov-13 00:00N 37°57' E 023°34'0 0.0
2017-Nov-12 23:30N 37°57' E 023°34'0 0.0
2017-Nov-12 23:01N 37°57' E 023°34'0 0.0
2017-Nov-12 22:30N 37°57' E 023°34'0 0.1
2017-Nov-12 22:01N 37°57' E 023°34'0 0.1
2017-Nov-12 21:31N 37°57' E 023°34'0 0.0
2017-Nov-12 21:00N 37°57' E 023°34'0 0.0
2017-Nov-12 20:30N 37°57' E 023°34'0 0.1
2017-Nov-12 20:01N 37°57' E 023°34'0 0.0
2017-Nov-12 19:31N 37°57' E 023°34'0 0.0
2017-Nov-12 19:00N 37°57' E 023°34'0 0.0
2017-Nov-12 18:31N 37°57' E 023°34'0 0.1
2017-Nov-12 18:01N 37°57' E 023°34'0 0.0
2017-Nov-12 17:30N 37°57' E 023°34'0 0.0
2017-Nov-12 17:01N 37°57' E 023°34'0 0.0
2017-Nov-12 16:31N 37°57' E 023°34'0 0.0
2017-Nov-12 16:01N 37°57' E 023°34'0 0.0
2017-Nov-12 15:31N 37°57' E 023°34'2 4.0
2017-Nov-12 15:00N 37°55' E 023°34'3 6.0
2017-Nov-12 14:31N 37°53' E 023°32'0 0.0
2017-Nov-12 14:01N 37°53' E 023°32'0 0.0
2017-Nov-12 13:30N 37°53' E 023°32'0 0.0
2017-Nov-12 13:01N 37°53' E 023°32'0 0.0
2017-Nov-12 12:31N 37°53' E 023°32'0 0.0
2017-Nov-12 12:00N 37°53' E 023°32'0 0.0
2017-Nov-12 11:30N 37°53' E 023°32'0 0.0
2017-Nov-12 11:01N 37°53' E 023°32'0 0.0
2017-Nov-12 10:30N 37°53' E 023°32'0 0.0
2017-Nov-12 10:00N 37°53' E 023°32'0 0.1
2017-Nov-12 09:31N 37°53' E 023°32'0 0.1
2017-Nov-12 09:01N 37°53' E 023°32'0 0.0
2017-Nov-12 08:31N 37°53' E 023°32'0 0.0
2017-Nov-12 08:00N 37°53' E 023°32'0 0.1
2017-Nov-12 07:30N 37°53' E 023°32'2 3.1
2017-Nov-12 07:00N 37°53' E 023°30'4 8.2
2017-Nov-12 06:31N 37°51' E 023°25'4 8.5
2017-Nov-12 06:00N 37°52' E 023°20'4 8.7
2017-Nov-12 05:30N 37°53' E 023°15'4 8.5
2017-Nov-12 05:01N 37°54' E 023°09'3 6.7
2017-Nov-12 04:31N 37°55' E 023°05'0 0.2
2017-Nov-12 04:01N 37°55' E 023°05'0 0.0
2017-Nov-12 03:31N 37°55' E 023°05'0 0.0
2017-Nov-12 03:01N 37°55' E 023°05'0 0.0
2017-Nov-12 02:31N 37°55' E 023°05'0 0.0
2017-Nov-12 02:00N 37°55' E 023°05'0 0.0
2017-Nov-12 01:31N 37°55' E 023°05'0 0.0
2017-Nov-12 01:00N 37°55' E 023°05'0 0.0
2017-Nov-12 00:30N 37°55' E 023°05'0 0.0
2017-Nov-12 00:01N 37°55' E 023°05'0 0.0
2017-Nov-11 23:31N 37°55' E 023°05'0 0.0
2017-Nov-11 23:01N 37°55' E 023°05'0 0.0
2017-Nov-11 22:31N 37°55' E 023°05'0 0.0
2017-Nov-11 22:00N 37°55' E 023°05'0 0.0
2017-Nov-11 21:31N 37°55' E 023°05'0 0.0
2017-Nov-11 21:01N 37°55' E 023°05'0 0.0
2017-Nov-11 20:31N 37°55' E 023°05'0 0.0
2017-Nov-11 20:01N 37°55' E 023°05'0 0.0
2017-Nov-11 19:30N 37°55' E 023°05'0 0.0
2017-Nov-11 19:01N 37°55' E 023°05'0 0.0
2017-Nov-11 18:31N 37°55' E 023°05'0 0.0
2017-Nov-11 18:01N 37°55' E 023°05'0 0.0
2017-Nov-11 17:30N 37°55' E 023°05'0 0.0
2017-Nov-11 17:01N 37°55' E 023°05'0 0.0
2017-Nov-11 16:31N 37°55' E 023°05'0 0.0
2017-Nov-11 16:00N 37°55' E 023°05'0 0.0
2017-Nov-11 15:31N 37°55' E 023°05'0 0.0
2017-Nov-11 15:01N 37°55' E 023°05'1 1.4
2017-Nov-11 14:31N 37°55' E 023°06'0 0.2
2017-Nov-11 14:01N 37°55' E 023°06'0 0.0
2017-Nov-11 13:31N 37°55' E 023°06'0 0.0
2017-Nov-11 13:01N 37°55' E 023°06'0 0.0
2017-Nov-11 12:30N 37°55' E 023°06'0 0.0
2017-Nov-11 12:00N 37°55' E 023°06'0 0.0
2017-Nov-11 11:31N 37°55' E 023°06'0 0.0
2017-Nov-11 11:00N 37°55' E 023°06'0 0.0
2017-Nov-11 10:30N 37°55' E 023°06'0 0.0
2017-Nov-11 10:01N 37°55' E 023°06'0 0.0
2017-Nov-11 09:30N 37°55' E 023°06'0 0.0
2017-Nov-11 09:00N 37°55' E 023°06'0 0.0
2017-Nov-11 08:31N 37°55' E 023°06'0 0.0
2017-Nov-11 08:00N 37°55' E 023°06'0 0.0
2017-Nov-11 07:31N 37°55' E 023°06'0 0.0
2017-Nov-11 07:01N 37°55' E 023°06'0 0.0
2017-Nov-11 06:30N 37°55' E 023°06'0 0.0
2017-Nov-11 06:00N 37°55' E 023°06'0 0.0
2017-Nov-11 05:30N 37°55' E 023°06'0 0.0
2017-Nov-11 05:00N 37°55' E 023°06'0 0.0
2017-Nov-11 04:31N 37°55' E 023°06'0 0.1
2017-Nov-11 04:01N 37°55' E 023°06'0 0.0
2017-Nov-11 03:31N 37°55' E 023°06'0 0.0
2017-Nov-11 03:01N 37°55' E 023°06'0 0.0
2017-Nov-11 02:30N 37°55' E 023°06'0 0.0
2017-Nov-11 02:01N 37°55' E 023°06'0 0.0
2017-Nov-11 01:31N 37°55' E 023°06'0 0.1
2017-Nov-11 01:01N 37°55' E 023°06'0 0.0
2017-Nov-11 00:30N 37°55' E 023°06'0 0.1
2017-Nov-11 00:00N 37°55' E 023°06'0 0.0
2017-Nov-10 23:31N 37°55' E 023°06'0 0.0
2017-Nov-10 23:01N 37°55' E 023°06'0 0.0
2017-Nov-10 22:31N 37°55' E 023°06'0 0.0
2017-Nov-10 22:00N 37°55' E 023°06'0 0.1
2017-Nov-10 21:31N 37°55' E 023°06'2 4.1
2017-Nov-10 21:00N 37°54' E 023°09'5 9.2
2017-Nov-10 20:31N 37°53' E 023°15'5 9.0
2017-Nov-10 20:01N 37°53' E 023°20'5 9.2
2017-Nov-10 19:30N 37°52' E 023°26'4 8.7
2017-Nov-10 19:01N 37°53' E 023°31'4 8.8
2017-Nov-10 18:30N 37°57' E 023°35'1 1.9
2017-Nov-10 18:00N 37°57' E 023°34'0 0.0
2017-Nov-10 17:31N 37°57' E 023°34'0 0.0
2017-Nov-10 17:00N 37°57' E 023°34'0 0.0
2017-Nov-10 16:31N 37°57' E 023°34'0 0.0
2017-Nov-10 16:01N 37°57' E 023°34'0 0.0
2017-Nov-10 15:31N 37°57' E 023°34'0 0.0
2017-Nov-10 15:00N 37°57' E 023°34'0 0.0
2017-Nov-10 14:31N 37°57' E 023°34'0 0.0
2017-Nov-10 14:00N 37°57' E 023°34'0 0.0
2017-Nov-10 13:31N 37°57' E 023°34'0 0.0
2017-Nov-10 13:00N 37°57' E 023°34'0 0.0
2017-Nov-10 12:31N 37°57' E 023°34'0 0.0
2017-Nov-10 12:01N 37°57' E 023°34'0 0.0
2017-Nov-10 11:30N 37°57' E 023°34'0 0.0
2017-Nov-10 11:01N 37°57' E 023°34'0 0.0
2017-Nov-10 10:31N 37°57' E 023°34'0 0.0
2017-Nov-10 10:01N 37°57' E 023°34'0 0.1
2017-Nov-10 09:31N 37°57' E 023°34'0 0.1
2017-Nov-10 09:01N 37°57' E 023°34'0 0.0
2017-Nov-10 08:30N 37°57' E 023°34'0 0.0
2017-Nov-10 08:01N 37°57' E 023°34'0 0.0
2017-Nov-10 07:30N 37°57' E 023°34'0 0.1
2017-Nov-10 07:01N 37°57' E 023°34'0 0.0
2017-Nov-10 06:31N 37°57' E 023°34'0 0.0
2017-Nov-10 06:00N 37°57' E 023°34'0 0.1
2017-Nov-10 05:31N 37°57' E 023°34'0 0.0
2017-Nov-10 05:01N 37°57' E 023°34'0 0.0
2017-Nov-10 04:31N 37°57' E 023°34'0 0.0
2017-Nov-10 04:01N 37°57' E 023°34'0 0.0
2017-Nov-10 03:31N 37°57' E 023°34'0 0.0
2017-Nov-10 03:01N 37°57' E 023°34'0 0.1
2017-Nov-10 02:31N 37°57' E 023°34'0 0.0
2017-Nov-10 02:00N 37°57' E 023°34'0 0.0
2017-Nov-10 01:30N 37°57' E 023°34'0 0.0
2017-Nov-10 01:01N 37°57' E 023°34'0 0.0
2017-Nov-10 00:31N 37°57' E 023°34'0 0.0
2017-Nov-10 00:00N 37°57' E 023°34'0 0.0
2017-Nov-09 23:31N 37°57' E 023°34'0 0.0
2017-Nov-09 23:01N 37°57' E 023°34'0 0.0
2017-Nov-09 22:31N 37°57' E 023°34'0 0.1
2017-Nov-09 22:00N 37°57' E 023°34'0 0.1
2017-Nov-09 21:30N 37°57' E 023°34'0 0.0
2017-Nov-09 21:01N 37°57' E 023°34'0 0.0
2017-Nov-09 20:31N 37°57' E 023°34'0 0.1
2017-Nov-09 20:00N 37°57' E 023°34'0 0.0
2017-Nov-09 19:31N 37°57' E 023°34'0 0.0
2017-Nov-09 19:01N 37°57' E 023°34'0 0.1
2017-Nov-09 18:31N 37°57' E 023°34'0 0.0
2017-Nov-09 18:01N 37°57' E 023°34'0 0.0
2017-Nov-09 17:31N 37°57' E 023°34'0 0.1
2017-Nov-09 17:01N 37°57' E 023°34'0 0.0
2017-Nov-09 16:31N 37°57' E 023°34'0 0.0
2017-Nov-09 16:00N 37°57' E 023°34'0 0.0
2017-Nov-09 15:31N 37°57' E 023°34'0 0.0
2017-Nov-09 15:01N 37°57' E 023°34'0 0.0
2017-Nov-09 14:31N 37°57' E 023°34'0 0.0
2017-Nov-09 14:01N 37°57' E 023°34'0 0.0
2017-Nov-09 13:31N 37°57' E 023°34'0 0.0
2017-Nov-09 13:00N 37°57' E 023°34'0 0.0
2017-Nov-09 12:31N 37°57' E 023°34'0 0.0
2017-Nov-09 12:00N 37°57' E 023°34'0 0.0
2017-Nov-09 11:30N 37°57' E 023°34'0 0.0
2017-Nov-09 11:01N 37°57' E 023°34'0 0.0
2017-Nov-09 10:31N 37°57' E 023°34'0 0.0
2017-Nov-09 10:01N 37°57' E 023°34'0 0.0
2017-Nov-09 09:30N 37°57' E 023°34'0 0.0
2017-Nov-09 09:01N 37°57' E 023°34'0 0.0
2017-Nov-09 08:30N 37°57' E 023°34'  
Track history (hours):
 
Tides and Currents Weather Stations Pressure Air Temp Water Temp Dewpoint Dewpoint Depression Visibility Wind Speed Wind Dir Waves Ship Positions

Siros

Last reported at 2017-Nov-19 08:30 UTC. Time now 2017-Nov-19 08:46 UTC.
Position N 37°57' E 023°34'.

Type: Tanker. MMSI: 237017200.

Date/timePositionNaut miles runAvg speedWind from/ knotsBaromVisibWave heightAir tempDewpointWater temp
2017-Nov-19 08:30N 37°57' E 023°34'0 0.0
2017-Nov-19 08:01N 37°57' E 023°34'0 0.1
2017-Nov-19 07:31N 37°57' E 023°34'0 0.0
2017-Nov-19 07:01N 37°57' E 023°34'0 0.0
2017-Nov-19 06:31N 37°57' E 023°34'0 0.0
2017-Nov-19 06:00N 37°57' E 023°34'0 0.0
2017-Nov-19 05:31N 37°57' E 023°34'0 0.1
2017-Nov-19 05:01N 37°57' E 023°34'0 0.0
2017-Nov-19 04:31N 37°57' E 023°34'0 0.0
2017-Nov-19 04:00N 37°57' E 023°34'0 0.1
2017-Nov-19 03:30N 37°57' E 023°34'0 0.1
2017-Nov-19 03:01N 37°57' E 023°34'0 0.0
2017-Nov-19 02:31N 37°57' E 023°34'0 0.0
2017-Nov-19 02:01N 37°57' E 023°34'0 0.0
2017-Nov-19 01:30N 37°57' E 023°34'0 0.0
2017-Nov-19 01:00N 37°57' E 023°34'0 0.0
2017-Nov-19 00:30N 37°57' E 023°34'0 0.1
2017-Nov-19 00:00N 37°57' E 023°34'0 0.0
2017-Nov-18 23:31N 37°57' E 023°34'0 0.0
2017-Nov-18 23:01N 37°57' E 023°34'0 0.1
2017-Nov-18 22:31N 37°57' E 023°34'0 0.0
2017-Nov-18 22:01N 37°57' E 023°34'0 0.0
2017-Nov-18 21:31N 37°57' E 023°34'0 0.1
2017-Nov-18 21:01N 37°57' E 023°34'0 0.0
2017-Nov-18 20:30N 37°57' E 023°34'0 0.0
2017-Nov-18 20:01N 37°57' E 023°34'0 0.1
2017-Nov-18 19:30N 37°57' E 023°34'0 0.0
2017-Nov-18 19:01N 37°57' E 023°34'1 2.3
2017-Nov-18 18:30N 37°57' E 023°36'0 0.2
2017-Nov-18 18:01N 37°57' E 023°36'0 0.0
2017-Nov-18 17:31N 37°57' E 023°36'0 0.0
2017-Nov-18 17:01N 37°57' E 023°36'0 0.0
2017-Nov-18 16:31N 37°57' E 023°36'0 0.0
2017-Nov-18 16:01N 37°57' E 023°36'0 0.0
2017-Nov-18 15:30N 37°57' E 023°36'0 0.0
2017-Nov-18 15:01N 37°57' E 023°36'0 0.0
2017-Nov-18 14:31N 37°57' E 023°36'0 0.2
2017-Nov-18 14:00N 37°57' E 023°36'3 5.3
2017-Nov-18 13:30N 37°58' E 023°33'3 5.5
2017-Nov-18 13:01N 38°01' E 023°32'0 0.0
2017-Nov-18 12:30N 38°01' E 023°32'0 0.0
2017-Nov-18 12:00N 38°01' E 023°32'0 0.0
2017-Nov-18 11:30N 38°01' E 023°32'0 0.0
2017-Nov-18 11:00N 38°01' E 023°32'0 0.0
2017-Nov-18 10:30N 38°01' E 023°32'0 0.0
2017-Nov-18 10:00N 38°01' E 023°32'0 0.0
2017-Nov-18 09:30N 38°01' E 023°32'0 0.0
2017-Nov-18 09:01N 38°01' E 023°32'0 0.0
2017-Nov-18 08:30N 38°01' E 023°32'0 0.1
2017-Nov-18 07:59N 38°01' E 023°32'0 0.0
2017-Nov-18 07:30N 38°01' E 023°32'1 2.2
2017-Nov-18 07:00N 37°60' E 023°33'3 7.0
2017-Nov-18 06:30N 37°57' E 023°35'4 7.0
2017-Nov-18 06:00N 37°54' E 023°33'3 5.0
2017-Nov-18 05:29N 37°52' E 023°31'0 0.2
2017-Nov-18 05:00N 37°52' E 023°31'0 0.1
2017-Nov-18 04:30N 37°52' E 023°31'0 0.0
2017-Nov-18 04:01N 37°52' E 023°31'0 0.0
2017-Nov-18 03:30N 37°52' E 023°31'0 0.0
2017-Nov-18 02:56N 37°52' E 023°31'0 0.0
2017-Nov-18 02:29N 37°52' E 023°31'0 0.1
2017-Nov-18 02:01N 37°52' E 023°31'2 4.2
2017-Nov-18 01:30N 37°51' E 023°28'4 8.3
2017-Nov-18 00:59N 37°52' E 023°23'4 8.0
2017-Nov-18 00:30N 37°53' E 023°18'4 8.1
2017-Nov-18 00:01N 37°53' E 023°13'4 8.0
2017-Nov-17 23:31N 37°54' E 023°08'2 4.5
2017-Nov-17 23:01N 37°55' E 023°05'0 0.1
2017-Nov-17 22:30N 37°55' E 023°05'0 0.0
2017-Nov-17 22:00N 37°55' E 023°05'0 0.0
2017-Nov-17 21:31N 37°55' E 023°05'0 0.0
2017-Nov-17 21:01N 37°55' E 023°05'0 0.0
2017-Nov-17 20:31N 37°55' E 023°05'0 0.0
2017-Nov-17 20:01N 37°55' E 023°05'0 0.0
2017-Nov-17 19:30N 37°55' E 023°05'0 0.0
2017-Nov-17 19:00N 37°55' E 023°05'0 0.0
2017-Nov-17 18:30N 37°55' E 023°05'0 0.0
2017-Nov-17 18:01N 37°55' E 023°05'0 0.0
2017-Nov-17 17:31N 37°55' E 023°05'0 0.0
2017-Nov-17 17:00N 37°55' E 023°05'0 0.0
2017-Nov-17 16:30N 37°55' E 023°05'0 0.0
2017-Nov-17 15:32N 37°55' E 023°05'0 0.0
2017-Nov-17 15:30N 37°55' E 023°05'0 0.0
2017-Nov-17 15:01N 37°55' E 023°05'0 0.0
2017-Nov-17 14:30N 37°55' E 023°05'0 0.0
2017-Nov-17 14:01N 37°55' E 023°05'0 0.0
2017-Nov-17 13:31N 37°55' E 023°05'0 0.0
2017-Nov-17 13:01N 37°55' E 023°05'0 0.0
2017-Nov-17 12:31N 37°55' E 023°05'0 0.0
2017-Nov-17 12:00N 37°55' E 023°05'0 0.0
2017-Nov-17 11:27N 37°55' E 023°05'0 0.0
2017-Nov-17 11:01N 37°55' E 023°05'0 0.0
2017-Nov-17 10:31N 37°55' E 023°05'0 0.0
2017-Nov-17 10:01N 37°55' E 023°05'0 0.0
2017-Nov-17 09:31N 37°55' E 023°05'0 0.0
2017-Nov-17 09:01N 37°55' E 023°05'0 0.0
2017-Nov-17 08:31N 37°55' E 023°05'0 0.1
2017-Nov-17 08:01N 37°55' E 023°05'1 1.7
2017-Nov-17 07:31N 37°55' E 023°06'0 0.3
2017-Nov-17 07:01N 37°55' E 023°06'0 0.0
2017-Nov-17 06:31N 37°55' E 023°06'0 0.0
2017-Nov-17 06:01N 37°55' E 023°06'0 0.0
2017-Nov-17 05:31N 37°55' E 023°06'0 0.0
2017-Nov-17 05:01N 37°55' E 023°06'0 0.0
2017-Nov-17 04:30N 37°55' E 023°06'0 0.0
2017-Nov-17 04:01N 37°55' E 023°06'0 0.0
2017-Nov-17 03:31N 37°55' E 023°06'0 0.0
2017-Nov-17 03:00N 37°55' E 023°06'0 0.0
2017-Nov-17 02:30N 37°55' E 023°06'0 0.0
2017-Nov-17 02:00N 37°55' E 023°06'0 0.0
2017-Nov-17 01:31N 37°55' E 023°06'0 0.0
2017-Nov-17 01:01N 37°55' E 023°06'0 0.0
2017-Nov-17 00:30N 37°55' E 023°06'0 0.0
2017-Nov-17 00:01N 37°55' E 023°06'0 0.0
2017-Nov-16 23:31N 37°55' E 023°06'0 0.0
2017-Nov-16 23:01N 37°55' E 023°06'0 0.8
2017-Nov-16 22:31N 37°55' E 023°07'4 7.1
2017-Nov-16 22:00N 37°54' E 023°11'5 9.2
2017-Nov-16 21:30N 37°53' E 023°17'5 9.4
2017-Nov-16 21:00N 37°52' E 023°23'4 8.9
2017-Nov-16 20:31N 37°52' E 023°28'4 8.4
2017-Nov-16 20:01N 37°54' E 023°32'3 6.6
2017-Nov-16 19:31N 37°57' E 023°34'0 0.3
2017-Nov-16 19:00N 37°57' E 023°34'0 0.0
2017-Nov-16 18:31N 37°57' E 023°34'0 0.0
2017-Nov-16 18:00N 37°57' E 023°34'0 0.0
2017-Nov-16 17:30N 37°57' E 023°34'0 0.0
2017-Nov-16 17:01N 37°57' E 023°34'0 0.0
2017-Nov-16 16:31N 37°57' E 023°34'0 0.0
2017-Nov-16 16:01N 37°57' E 023°34'0 0.1
2017-Nov-16 15:31N 37°57' E 023°34'0 0.1
2017-Nov-16 15:01N 37°57' E 023°34'0 0.0
2017-Nov-16 14:31N 37°57' E 023°34'0 0.0
2017-Nov-16 14:01N 37°57' E 023°34'0 0.0
2017-Nov-16 13:31N 37°57' E 023°34'0 0.0
2017-Nov-16 13:00N 37°57' E 023°34'0 0.0
2017-Nov-16 12:31N 37°57' E 023°34'0 0.0
2017-Nov-16 12:00N 37°57' E 023°34'0 0.0
2017-Nov-16 11:31N 37°57' E 023°34'0 0.0
2017-Nov-16 11:01N 37°57' E 023°34'0 0.0
2017-Nov-16 10:30N 37°57' E 023°34'0 0.0
2017-Nov-16 10:01N 37°57' E 023°34'0 0.0
2017-Nov-16 09:31N 37°57' E 023°34'0 0.1
2017-Nov-16 09:01N 37°57' E 023°34'0 0.1
2017-Nov-16 08:31N 37°57' E 023°34'0 0.0
2017-Nov-16 08:00N 37°57' E 023°34'0 0.2
2017-Nov-16 07:30N 37°57' E 023°34'0 0.0
2017-Nov-16 07:01N 37°57' E 023°34'0 0.0
2017-Nov-16 06:30N 37°57' E 023°34'0 0.0
2017-Nov-16 06:00N 37°57' E 023°34'0 0.0
2017-Nov-16 05:31N 37°57' E 023°34'0 0.1
2017-Nov-16 05:00N 37°57' E 023°34'0 0.0
2017-Nov-16 04:31N 37°57' E 023°34'0 0.0
2017-Nov-16 04:01N 37°57' E 023°34'0 0.0
2017-Nov-16 03:30N 37°57' E 023°34'0 0.0
2017-Nov-16 03:01N 37°57' E 023°34'0 0.0
2017-Nov-16 02:31N 37°57' E 023°34'0 0.0
2017-Nov-16 02:01N 37°57' E 023°34'0 0.0
2017-Nov-16 01:30N 37°57' E 023°34'0 0.0
2017-Nov-16 01:01N 37°57' E 023°34'0 0.0
2017-Nov-16 00:30N 37°57' E 023°34'0 0.0
2017-Nov-16 00:00N 37°57' E 023°34'0 0.0
2017-Nov-15 23:30N 37°57' E 023°34'0 0.0
2017-Nov-15 23:01N 37°57' E 023°34'0 0.0
2017-Nov-15 22:30N 37°57' E 023°34'0 0.0
2017-Nov-15 22:01N 37°57' E 023°34'0 0.0
2017-Nov-15 21:31N 37°57' E 023°34'0 0.0
2017-Nov-15 21:01N 37°57' E 023°34'0 0.0
2017-Nov-15 20:31N 37°57' E 023°34'0 0.0
2017-Nov-15 20:01N 37°57' E 023°34'0 0.0
2017-Nov-15 19:31N 37°57' E 023°34'0 0.0
2017-Nov-15 19:01N 37°57' E 023°34'0 0.0
2017-Nov-15 18:31N 37°57' E 023°34'0 0.0
2017-Nov-15 18:01N 37°57' E 023°34'0 0.1
2017-Nov-15 17:31N 37°57' E 023°34'0 0.1
2017-Nov-15 17:01N 37°57' E 023°34'0 0.0
2017-Nov-15 16:31N 37°57' E 023°34'0 0.1
2017-Nov-15 16:01N 37°57' E 023°34'0 0.1
2017-Nov-15 15:31N 37°57' E 023°34'0 0.0
2017-Nov-15 15:01N 37°57' E 023°34'0 0.1
2017-Nov-15 14:31N 37°57' E 023°34'0 0.0
2017-Nov-15 14:01N 37°57' E 023°34'0 0.0
2017-Nov-15 13:30N 37°57' E 023°34'0 0.0
2017-Nov-15 13:01N 37°57' E 023°34'0 0.1
2017-Nov-15 12:31N 37°57' E 023°34'0 0.0
2017-Nov-15 12:01N 37°57' E 023°34'3 6.8
2017-Nov-15 11:31N 37°54' E 023°33'2 3.3
2017-Nov-15 11:01N 37°53' E 023°32'0 0.0
2017-Nov-15 10:31N 37°53' E 023°32'0 0.0
2017-Nov-15 10:01N 37°53' E 023°32'0 0.0
2017-Nov-15 09:31N 37°53' E 023°32'0 0.0
2017-Nov-15 09:01N 37°53' E 023°32'0 0.0
2017-Nov-15 08:31N 37°53' E 023°32'0 0.0
2017-Nov-15 08:01N 37°53' E 023°32'0 0.1
2017-Nov-15 07:30N 37°53' E 023°32'0 0.0
2017-Nov-15 07:00N 37°53' E 023°32'0 0.0
2017-Nov-15 06:31N 37°53' E 023°32'0 0.0
2017-Nov-15 06:01N 37°53' E 023°32'1 2.3
2017-Nov-15 05:31N 37°53' E 023°30'4 8.1
2017-Nov-15 05:00N 37°51' E 023°25'4 8.8
2017-Nov-15 04:30N 37°52' E 023°20'4 8.8
2017-Nov-15 04:01N 37°53' E 023°15'4 8.7
2017-Nov-15 03:31N 37°54' E 023°09'3 6.3
2017-Nov-15 03:00N 37°55' E 023°05'0 0.1
2017-Nov-15 02:30N 37°55' E 023°05'0 0.0
2017-Nov-15 02:01N 37°55' E 023°05'0 0.0
2017-Nov-15 01:31N 37°55' E 023°05'0 0.0
2017-Nov-15 01:01N 37°55' E 023°05'0 0.0
2017-Nov-15 00:31N 37°55' E 023°05'0 0.0
2017-Nov-15 00:00N 37°55' E 023°05'0 0.0
2017-Nov-14 23:31N 37°55' E 023°05'0 0.0
2017-Nov-14 23:01N 37°55' E 023°05'0 0.0
2017-Nov-14 22:31N 37°55' E 023°05'0 0.0
2017-Nov-14 22:01N 37°55' E 023°05'0 0.0
2017-Nov-14 21:31N 37°55' E 023°05'0 0.0
2017-Nov-14 21:01N 37°55' E 023°05'0 0.0
2017-Nov-14 20:31N 37°55' E 023°05'0 0.0
2017-Nov-14 20:00N 37°55' E 023°05'0 0.0
2017-Nov-14 19:30N 37°55' E 023°05'0 0.0
2017-Nov-14 19:01N 37°55' E 023°05'0 0.0
2017-Nov-14 18:31N 37°55' E 023°05'0 0.0
2017-Nov-14 18:01N 37°55' E 023°05'0 0.0
2017-Nov-14 17:31N 37°55' E 023°05'0 0.0
2017-Nov-14 17:01N 37°55' E 023°05'1 1.3
2017-Nov-14 16:30N 37°55' E 023°06'4 8.6
2017-Nov-14 16:01N 37°54' E 023°11'5 9.2
2017-Nov-14 15:31N 37°53' E 023°17'5 9.4
2017-Nov-14 15:01N 37°52' E 023°23'5 9.2
2017-Nov-14 14:31N 37°52' E 023°29'5 9.0
2017-Nov-14 14:01N 37°55' E 023°33'3 5.4
2017-Nov-14 13:31N 37°57' E 023°34'0 0.0
2017-Nov-14 13:00N 37°57' E 023°34'0 0.0
2017-Nov-14 12:31N 37°57' E 023°34'0 0.0
2017-Nov-14 12:00N 37°57' E 023°34'0 0.0
2017-Nov-14 11:31N 37°57' E 023°34'0 0.0
2017-Nov-14 11:00N 37°57' E 023°34'0 0.0
2017-Nov-14 10:31N 37°57' E 023°34'0 0.0
2017-Nov-14 10:00N 37°57' E 023°34'0 0.0
2017-Nov-14 09:31N 37°57' E 023°34'0 0.0
2017-Nov-14 09:01N 37°57' E 023°34'0 0.0
2017-Nov-14 08:30N 37°57' E 023°34'0 0.0
2017-Nov-14 08:01N 37°57' E 023°34'0 0.0
2017-Nov-14 07:31N 37°57' E 023°34'0 0.0
2017-Nov-14 07:00N 37°57' E 023°34'0 0.0
2017-Nov-14 06:31N 37°57' E 023°34'0 0.0
2017-Nov-14 06:01N 37°57' E 023°34'0 0.0
2017-Nov-14 05:30N 37°57' E 023°34'0 0.0
2017-Nov-14 05:01N 37°57' E 023°34'0 0.1
2017-Nov-14 04:31N 37°57' E 023°34'0 0.0
2017-Nov-14 04:00N 37°57' E 023°34'0 0.0
2017-Nov-14 03:31N 37°57' E 023°34'0 0.1
2017-Nov-14 03:01N 37°57' E 023°34'0 0.0
2017-Nov-14 02:31N 37°57' E 023°34'0 0.0
2017-Nov-14 02:00N 37°57' E 023°34'0 0.0
2017-Nov-14 01:31N 37°57' E 023°34'0 0.0
2017-Nov-14 01:01N 37°57' E 023°34'0 0.1
2017-Nov-14 00:31N 37°57' E 023°34'0 0.0
2017-Nov-14 00:01N 37°57' E 023°34'0 0.1
2017-Nov-13 23:30N 37°57' E 023°34'0 0.0
2017-Nov-13 23:00N 37°57' E 023°34'0 0.0
2017-Nov-13 22:30N 37°57' E 023°34'0 0.0
2017-Nov-13 22:00N 37°57' E 023°34'0 0.0
2017-Nov-13 02:00N 37°57' E 023°34'0 0.0
2017-Nov-13 01:31N 37°57' E 023°34'0 0.1
2017-Nov-13 01:01N 37°57' E 023°34'0 0.0
2017-Nov-13 00:30N 37°57' E 023°34'0 0.0
2017-Nov-13 00:00N 37°57' E 023°34'0 0.0
2017-Nov-12 23:30N 37°57' E 023°34'0 0.0
2017-Nov-12 23:01N 37°57' E 023°34'0 0.0
2017-Nov-12 22:30N 37°57' E 023°34'0 0.1
2017-Nov-12 22:01N 37°57' E 023°34'0 0.1
2017-Nov-12 21:31N 37°57' E 023°34'0 0.0
2017-Nov-12 21:00N 37°57' E 023°34'0 0.0
2017-Nov-12 20:30N 37°57' E 023°34'0 0.1
2017-Nov-12 20:01N 37°57' E 023°34'0 0.0
2017-Nov-12 19:31N 37°57' E 023°34'0 0.0
2017-Nov-12 19:00N 37°57' E 023°34'0 0.0
2017-Nov-12 18:31N 37°57' E 023°34'0 0.1
2017-Nov-12 18:01N 37°57' E 023°34'0 0.0
2017-Nov-12 17:30N 37°57' E 023°34'0 0.0
2017-Nov-12 17:01N 37°57' E 023°34'0 0.0
2017-Nov-12 16:31N 37°57' E 023°34'0 0.0
2017-Nov-12 16:01N 37°57' E 023°34'0 0.0
2017-Nov-12 15:31N 37°57' E 023°34'2 4.0
2017-Nov-12 15:00N 37°55' E 023°34'3 6.0
2017-Nov-12 14:31N 37°53' E 023°32'0 0.0
2017-Nov-12 14:01N 37°53' E 023°32'0 0.0
2017-Nov-12 13:30N 37°53' E 023°32'0 0.0
2017-Nov-12 13:01N 37°53' E 023°32'0 0.0
2017-Nov-12 12:31N 37°53' E 023°32'0 0.0
2017-Nov-12 12:00N 37°53' E 023°32'0 0.0
2017-Nov-12 11:30N 37°53' E 023°32'0 0.0
2017-Nov-12 11:01N 37°53' E 023°32'0 0.0
2017-Nov-12 10:30N 37°53' E 023°32'0 0.0
2017-Nov-12 10:00N 37°53' E 023°32'0 0.1
2017-Nov-12 09:31N 37°53' E 023°32'0 0.1
2017-Nov-12 09:01N 37°53' E 023°32'0 0.0
2017-Nov-12 08:31N 37°53' E 023°32'0 0.0
2017-Nov-12 08:00N 37°53' E 023°32'0 0.1
2017-Nov-12 07:30N 37°53' E 023°32'2 3.1
2017-Nov-12 07:00N 37°53' E 023°30'4 8.2
2017-Nov-12 06:31N 37°51' E 023°25'4 8.5
2017-Nov-12 06:00N 37°52' E 023°20'4 8.7
2017-Nov-12 05:30N 37°53' E 023°15'4 8.5
2017-Nov-12 05:01N 37°54' E 023°09'3 6.7
2017-Nov-12 04:31N 37°55' E 023°05'0 0.2
2017-Nov-12 04:01N 37°55' E 023°05'0 0.0
2017-Nov-12 03:31N 37°55' E 023°05'0 0.0
2017-Nov-12 03:01N 37°55' E 023°05'0 0.0
2017-Nov-12 02:31N 37°55' E 023°05'0 0.0
2017-Nov-12 02:00N 37°55' E 023°05'0 0.0
2017-Nov-12 01:31N 37°55' E 023°05'0 0.0
2017-Nov-12 01:00N 37°55' E 023°05'0 0.0
2017-Nov-12 00:30N 37°55' E 023°05'0 0.0
2017-Nov-12 00:01N 37°55' E 023°05'0 0.0
2017-Nov-11 23:31N 37°55' E 023°05'0 0.0
2017-Nov-11 23:01N 37°55' E 023°05'0 0.0
2017-Nov-11 22:31N 37°55' E 023°05'0 0.0
2017-Nov-11 22:00N 37°55' E 023°05'0 0.0
2017-Nov-11 21:31N 37°55' E 023°05'0 0.0
2017-Nov-11 21:01N 37°55' E 023°05'0 0.0
2017-Nov-11 20:31N 37°55' E 023°05'0 0.0
2017-Nov-11 20:01N 37°55' E 023°05'0 0.0
2017-Nov-11 19:30N 37°55' E 023°05'0 0.0
2017-Nov-11 19:01N 37°55' E 023°05'0 0.0
2017-Nov-11 18:31N 37°55' E 023°05'0 0.0
2017-Nov-11 18:01N 37°55' E 023°05'0 0.0
2017-Nov-11 17:30N 37°55' E 023°05'0 0.0
2017-Nov-11 17:01N 37°55' E 023°05'0 0.0
2017-Nov-11 16:31N 37°55' E 023°05'0 0.0
2017-Nov-11 16:00N 37°55' E 023°05'0 0.0
2017-Nov-11 15:31N 37°55' E 023°05'0 0.0
2017-Nov-11 15:01N 37°55' E 023°05'1 1.4
2017-Nov-11 14:31N 37°55' E 023°06'0 0.2
2017-Nov-11 14:01N 37°55' E 023°06'0 0.0
2017-Nov-11 13:31N 37°55' E 023°06'0 0.0
2017-Nov-11 13:01N 37°55' E 023°06'0 0.0
2017-Nov-11 12:30N 37°55' E 023°06'0 0.0
2017-Nov-11 12:00N 37°55' E 023°06'0 0.0
2017-Nov-11 11:31N 37°55' E 023°06'0 0.0
2017-Nov-11 11:00N 37°55' E 023°06'0 0.0
2017-Nov-11 10:30N 37°55' E 023°06'0 0.0
2017-Nov-11 10:01N 37°55' E 023°06'0 0.0
2017-Nov-11 09:30N 37°55' E 023°06'0 0.0
2017-Nov-11 09:00N 37°55' E 023°06'0 0.0
2017-Nov-11 08:31N 37°55' E 023°06'0 0.0
2017-Nov-11 08:00N 37°55' E 023°06'0 0.0
2017-Nov-11 07:31N 37°55' E 023°06'0 0.0
2017-Nov-11 07:01N 37°55' E 023°06'0 0.0
2017-Nov-11 06:30N 37°55' E 023°06'0 0.0
2017-Nov-11 06:00N 37°55' E 023°06'0 0.0
2017-Nov-11 05:30N 37°55' E 023°06'0 0.0
2017-Nov-11 05:00N 37°55' E 023°06'0 0.0
2017-Nov-11 04:31N 37°55' E 023°06'0 0.1
2017-Nov-11 04:01N 37°55' E 023°06'0 0.0
2017-Nov-11 03:31N 37°55' E 023°06'0 0.0
2017-Nov-11 03:01N 37°55' E 023°06'0 0.0
2017-Nov-11 02:30N 37°55' E 023°06'0 0.0
2017-Nov-11 02:01N 37°55' E 023°06'0 0.0
2017-Nov-11 01:31N 37°55' E 023°06'0 0.1
2017-Nov-11 01:01N 37°55' E 023°06'0 0.0
2017-Nov-11 00:30N 37°55' E 023°06'0 0.1
2017-Nov-11 00:00N 37°55' E 023°06'0 0.0
2017-Nov-10 23:31N 37°55' E 023°06'0 0.0
2017-Nov-10 23:01N 37°55' E 023°06'0 0.0
2017-Nov-10 22:31N 37°55' E 023°06'0 0.0
2017-Nov-10 22:00N 37°55' E 023°06'0 0.1
2017-Nov-10 21:31N 37°55' E 023°06'2 4.1
2017-Nov-10 21:00N 37°54' E 023°09'5 9.2
2017-Nov-10 20:31N 37°53' E 023°15'5 9.0
2017-Nov-10 20:01N 37°53' E 023°20'5 9.2
2017-Nov-10 19:30N 37°52' E 023°26'4 8.7
2017-Nov-10 19:01N 37°53' E 023°31'4 8.8
2017-Nov-10 18:30N 37°57' E 023°35'1 1.9
2017-Nov-10 18:00N 37°57' E 023°34'0 0.0
2017-Nov-10 17:31N 37°57' E 023°34'0 0.0
2017-Nov-10 17:00N 37°57' E 023°34'0 0.0
2017-Nov-10 16:31N 37°57' E 023°34'0 0.0
2017-Nov-10 16:01N 37°57' E 023°34'0 0.0
2017-Nov-10 15:31N 37°57' E 023°34'0 0.0
2017-Nov-10 15:00N 37°57' E 023°34'0 0.0
2017-Nov-10 14:31N 37°57' E 023°34'0 0.0
2017-Nov-10 14:00N 37°57' E 023°34'0 0.0
2017-Nov-10 13:31N 37°57' E 023°34'0 0.0
2017-Nov-10 13:00N 37°57' E 023°34'0 0.0
2017-Nov-10 12:31N 37°57' E 023°34'0 0.0
2017-Nov-10 12:01N 37°57' E 023°34'0 0.0
2017-Nov-10 11:30N 37°57' E 023°34'0 0.0
2017-Nov-10 11:01N 37°57' E 023°34'0 0.0
2017-Nov-10 10:31N 37°57' E 023°34'0 0.0
2017-Nov-10 10:01N 37°57' E 023°34'0 0.1
2017-Nov-10 09:31N 37°57' E 023°34'0 0.1
2017-Nov-10 09:01N 37°57' E 023°34'0 0.0
2017-Nov-10 08:30N 37°57' E 023°34'0 0.0
2017-Nov-10 08:01N 37°57' E 023°34'0 0.0
2017-Nov-10 07:30N 37°57' E 023°34'0 0.1
2017-Nov-10 07:01N 37°57' E 023°34'0 0.0
2017-Nov-10 06:31N 37°57' E 023°34'0 0.0
2017-Nov-10 06:00N 37°57' E 023°34'0 0.1
2017-Nov-10 05:31N 37°57' E 023°34'0 0.0
2017-Nov-10 05:01N 37°57' E 023°34'0 0.0
2017-Nov-10 04:31N 37°57' E 023°34'0 0.0
2017-Nov-10 04:01N 37°57' E 023°34'0 0.0
2017-Nov-10 03:31N 37°57' E 023°34'0 0.0
2017-Nov-10 03:01N 37°57' E 023°34'0 0.1
2017-Nov-10 02:31N 37°57' E 023°34'0 0.0
2017-Nov-10 02:00N 37°57' E 023°34'0 0.0
2017-Nov-10 01:30N 37°57' E 023°34'0 0.0
2017-Nov-10 01:01N 37°57' E 023°34'0 0.0
2017-Nov-10 00:31N 37°57' E 023°34'0 0.0
2017-Nov-10 00:00N 37°57' E 023°34'0 0.0
2017-Nov-09 23:31N 37°57' E 023°34'0 0.0
2017-Nov-09 23:01N 37°57' E 023°34'0 0.0
2017-Nov-09 22:31N 37°57' E 023°34'0 0.1
2017-Nov-09 22:00N 37°57' E 023°34'0 0.1
2017-Nov-09 21:30N 37°57' E 023°34'0 0.0
2017-Nov-09 21:01N 37°57' E 023°34'0 0.0
2017-Nov-09 20:31N 37°57' E 023°34'0 0.1
2017-Nov-09 20:00N 37°57' E 023°34'0 0.0
2017-Nov-09 19:31N 37°57' E 023°34'0 0.0
2017-Nov-09 19:01N 37°57' E 023°34'0 0.1
2017-Nov-09 18:31N 37°57' E 023°34'0 0.0
2017-Nov-09 18:01N 37°57' E 023°34'0 0.0
2017-Nov-09 17:31N 37°57' E 023°34'0 0.1
2017-Nov-09 17:01N 37°57' E 023°34'0 0.0
2017-Nov-09 16:31N 37°57' E 023°34'0 0.0
2017-Nov-09 16:00N 37°57' E 023°34'0 0.0
2017-Nov-09 15:31N 37°57' E 023°34'0 0.0
2017-Nov-09 15:01N 37°57' E 023°34'0 0.0
2017-Nov-09 14:31N 37°57' E 023°34'0 0.0
2017-Nov-09 14:01N 37°57' E 023°34'0 0.0
2017-Nov-09 13:31N 37°57' E 023°34'0 0.0
2017-Nov-09 13:00N 37°57' E 023°34'0 0.0
2017-Nov-09 12:31N 37°57' E 023°34'0 0.0
2017-Nov-09 12:00N 37°57' E 023°34'0 0.0
2017-Nov-09 11:30N 37°57' E 023°34'0 0.0
2017-Nov-09 11:01N 37°57' E 023°34'0 0.0
2017-Nov-09 10:31N 37°57' E 023°34'0 0.0
2017-Nov-09 10:01N 37°57' E 023°34'0 0.0
2017-Nov-09 09:30N 37°57' E 023°34'0 0.0
2017-Nov-09 09:01N 37°57' E 023°34'0 0.0
2017-Nov-09 08:30N 37°57' E 023°34'  

Dump ship's entire track history